sensor_id;sensor_type;location;lat;lon;timestamp;P1;durP1;ratioP1;P2;durP2;ratioP2
34573;SDS011;20809;49.594;8.734;2023-04-29T00:00:03;52.75;;;12.07;;
34573;SDS011;20809;49.594;8.734;2023-04-29T00:03:09;25.63;;;9.15;;
34573;SDS011;20809;49.594;8.734;2023-04-29T00:06:09;32.40;;;10.03;;
34573;SDS011;20809;49.594;8.734;2023-04-29T00:09:10;18.95;;;8.70;;
34573;SDS011;20809;49.594;8.734;2023-04-29T00:12:11;48.00;;;10.67;;
34573;SDS011;20809;49.594;8.734;2023-04-29T00:15:11;35.27;;;10.23;;
34573;SDS011;20809;49.594;8.734;2023-04-29T00:18:12;10.13;;;7.50;;
34573;SDS011;20809;49.594;8.734;2023-04-29T00:21:13;7.85;;;6.50;;
34573;SDS011;20809;49.594;8.734;2023-04-29T00:24:13;10.00;;;7.53;;
34573;SDS011;20809;49.594;8.734;2023-04-29T00:27:14;9.80;;;6.85;;
34573;SDS011;20809;49.594;8.734;2023-04-29T00:30:16;9.30;;;6.53;;
34573;SDS011;20809;49.594;8.734;2023-04-29T00:33:17;14.77;;;7.57;;
34573;SDS011;20809;49.594;8.734;2023-04-29T00:36:17;11.57;;;7.83;;
34573;SDS011;20809;49.594;8.734;2023-04-29T00:39:18;8.53;;;7.13;;
34573;SDS011;20809;49.594;8.734;2023-04-29T00:42:19;9.95;;;7.45;;
34573;SDS011;20809;49.594;8.734;2023-04-29T00:45:20;12.00;;;7.25;;
34573;SDS011;20809;49.594;8.734;2023-04-29T00:48:21;7.53;;;6.35;;
34573;SDS011;20809;49.594;8.734;2023-04-29T00:51:21;11.30;;;7.85;;
34573;SDS011;20809;49.594;8.734;2023-04-29T00:54:23;9.48;;;7.15;;
34573;SDS011;20809;49.594;8.734;2023-04-29T00:59:13;14.52;;;8.27;;
34573;SDS011;20809;49.594;8.734;2023-04-29T01:02:15;10.70;;;8.00;;
34573;SDS011;20809;49.594;8.734;2023-04-29T01:05:17;10.32;;;8.10;;
34573;SDS011;20809;49.594;8.734;2023-04-29T01:11:41;15.10;;;8.13;;
34573;SDS011;20809;49.594;8.734;2023-04-29T01:15:19;102.95;;;14.07;;
34573;SDS011;20809;49.594;8.734;2023-04-29T01:18:24;35.80;;;11.15;;
34573;SDS011;20809;49.594;8.734;2023-04-29T01:21:29;23.33;;;8.25;;
34573;SDS011;20809;49.594;8.734;2023-04-29T01:24:31;61.38;;;12.25;;
34573;SDS011;20809;49.594;8.734;2023-04-29T01:30:59;31.80;;;9.63;;
34573;SDS011;20809;49.594;8.734;2023-04-29T01:34:10;21.88;;;9.50;;
34573;SDS011;20809;49.594;8.734;2023-04-29T01:37:19;34.85;;;8.80;;
34573;SDS011;20809;49.594;8.734;2023-04-29T01:40:46;18.15;;;7.93;;
34573;SDS011;20809;49.594;8.734;2023-04-29T01:44:11;7.75;;;6.63;;
34573;SDS011;20809;49.594;8.734;2023-04-29T01:47:17;34.92;;;8.90;;
34573;SDS011;20809;49.594;8.734;2023-04-29T01:50:19;13.48;;;8.88;;
34573;SDS011;20809;49.594;8.734;2023-04-29T01:53:20;77.03;;;13.93;;
34573;SDS011;20809;49.594;8.734;2023-04-29T01:56:20;80.70;;;14.38;;
34573;SDS011;20809;49.594;8.734;2023-04-29T01:59:21;21.88;;;11.18;;
34573;SDS011;20809;49.594;8.734;2023-04-29T02:02:22;42.13;;;12.18;;
34573;SDS011;20809;49.594;8.734;2023-04-29T02:05:26;32.42;;;11.15;;
34573;SDS011;20809;49.594;8.734;2023-04-29T02:08:31;45.72;;;11.43;;
34573;SDS011;20809;49.594;8.734;2023-04-29T02:11:32;36.33;;;11.77;;
34573;SDS011;20809;49.594;8.734;2023-04-29T02:14:33;26.58;;;11.75;;
34573;SDS011;20809;49.594;8.734;2023-04-29T02:17:33;55.97;;;13.68;;
34573;SDS011;20809;49.594;8.734;2023-04-29T02:20:34;18.08;;;10.73;;
34573;SDS011;20809;49.594;8.734;2023-04-29T02:23:35;23.95;;;11.63;;
34573;SDS011;20809;49.594;8.734;2023-04-29T02:26:35;13.15;;;9.07;;
34573;SDS011;20809;49.594;8.734;2023-04-29T02:29:37;16.25;;;9.70;;
34573;SDS011;20809;49.594;8.734;2023-04-29T02:32:38;165.57;;;15.27;;
34573;SDS011;20809;49.594;8.734;2023-04-29T02:35:38;12.60;;;8.20;;
34573;SDS011;20809;49.594;8.734;2023-04-29T02:38:39;80.03;;;11.73;;
34573;SDS011;20809;49.594;8.734;2023-04-29T02:41:41;22.83;;;9.32;;
34573;SDS011;20809;49.594;8.734;2023-04-29T02:44:42;169.13;;;16.58;;
34573;SDS011;20809;49.594;8.734;2023-04-29T02:47:42;178.32;;;17.83;;
34573;SDS011;20809;49.594;8.734;2023-04-29T02:50:43;492.67;;;38.22;;
34573;SDS011;20809;49.594;8.734;2023-04-29T02:53:44;8.05;;;6.53;;
34573;SDS011;20809;49.594;8.734;2023-04-29T02:56:45;64.13;;;9.43;;
34573;SDS011;20809;49.594;8.734;2023-04-29T02:59:45;23.65;;;7.95;;
34573;SDS011;20809;49.594;8.734;2023-04-29T03:02:46;182.65;;;17.67;;
34573;SDS011;20809;49.594;8.734;2023-04-29T03:05:47;49.50;;;9.18;;
34573;SDS011;20809;49.594;8.734;2023-04-29T03:08:47;92.15;;;12.43;;
34573;SDS011;20809;49.594;8.734;2023-04-29T03:11:48;15.73;;;9.23;;
34573;SDS011;20809;49.594;8.734;2023-04-29T03:14:49;27.50;;;8.75;;
34573;SDS011;20809;49.594;8.734;2023-04-29T03:17:51;10.20;;;7.65;;
34573;SDS011;20809;49.594;8.734;2023-04-29T03:20:51;8.93;;;6.80;;
34573;SDS011;20809;49.594;8.734;2023-04-29T03:26:54;9.50;;;6.67;;
34573;SDS011;20809;49.594;8.734;2023-04-29T03:29:59;9.50;;;6.57;;
34573;SDS011;20809;49.594;8.734;2023-04-29T03:32:59;9.85;;;6.63;;
34573;SDS011;20809;49.594;8.734;2023-04-29T03:36:00;11.18;;;6.65;;
34573;SDS011;20809;49.594;8.734;2023-04-29T03:42:03;25.40;;;9.40;;
34573;SDS011;20809;49.594;8.734;2023-04-29T03:45:04;15.63;;;8.07;;
34573;SDS011;20809;49.594;8.734;2023-04-29T03:48:05;16.30;;;9.82;;
34573;SDS011;20809;49.594;8.734;2023-04-29T03:51:06;12.88;;;8.27;;
34573;SDS011;20809;49.594;8.734;2023-04-29T03:57:09;10.63;;;6.68;;
34573;SDS011;20809;49.594;8.734;2023-04-29T04:00:10;9.03;;;6.57;;
34573;SDS011;20809;49.594;8.734;2023-04-29T04:06:11;8.67;;;6.23;;
34573;SDS011;20809;49.594;8.734;2023-04-29T04:09:12;10.40;;;5.60;;
34573;SDS011;20809;49.594;8.734;2023-04-29T04:12:13;8.75;;;6.25;;
34573;SDS011;20809;49.594;8.734;2023-04-29T04:15:13;38.73;;;6.97;;
34573;SDS011;20809;49.594;8.734;2023-04-29T04:18:17;10.48;;;6.97;;
34573;SDS011;20809;49.594;8.734;2023-04-29T04:21:18;12.25;;;6.53;;
34573;SDS011;20809;49.594;8.734;2023-04-29T04:24:19;12.85;;;7.15;;
34573;SDS011;20809;49.594;8.734;2023-04-29T04:27:23;9.15;;;5.68;;
34573;SDS011;20809;49.594;8.734;2023-04-29T04:30:23;8.07;;;5.88;;
34573;SDS011;20809;49.594;8.734;2023-04-29T04:33:24;6.55;;;5.85;;
34573;SDS011;20809;49.594;8.734;2023-04-29T04:36:26;10.30;;;6.72;;
34573;SDS011;20809;49.594;8.734;2023-04-29T04:39:27;9.00;;;5.53;;
34573;SDS011;20809;49.594;8.734;2023-04-29T04:42:28;8.77;;;6.35;;
34573;SDS011;20809;49.594;8.734;2023-04-29T04:45:28;10.52;;;6.60;;
34573;SDS011;20809;49.594;8.734;2023-04-29T04:51:31;6.63;;;5.22;;
34573;SDS011;20809;49.594;8.734;2023-04-29T04:54:32;6.97;;;5.88;;
34573;SDS011;20809;49.594;8.734;2023-04-29T04:57:45;6.90;;;5.13;;
34573;SDS011;20809;49.594;8.734;2023-04-29T05:09:39;6.57;;;5.28;;
34573;SDS011;20809;49.594;8.734;2023-04-29T05:12:44;6.50;;;5.30;;
34573;SDS011;20809;49.594;8.734;2023-04-29T05:15:47;5.32;;;4.82;;
34573;SDS011;20809;49.594;8.734;2023-04-29T05:18:57;6.35;;;4.72;;
34573;SDS011;20809;49.594;8.734;2023-04-29T05:22:06;5.03;;;4.53;;
34573;SDS011;20809;49.594;8.734;2023-04-29T05:25:09;5.50;;;4.22;;
34573;SDS011;20809;49.594;8.734;2023-04-29T05:28:17;4.05;;;3.63;;
34573;SDS011;20809;49.594;8.734;2023-04-29T05:32:00;7.15;;;3.67;;
34573;SDS011;20809;49.594;8.734;2023-04-29T05:35:05;4.63;;;3.40;;
34573;SDS011;20809;49.594;8.734;2023-04-29T05:38:11;5.20;;;3.83;;
34573;SDS011;20809;49.594;8.734;2023-04-29T05:41:33;4.72;;;3.80;;
34573;SDS011;20809;49.594;8.734;2023-04-29T05:44:40;4.75;;;4.35;;
34573;SDS011;20809;49.594;8.734;2023-04-29T05:47:52;6.30;;;4.47;;
34573;SDS011;20809;49.594;8.734;2023-04-29T05:51:02;5.28;;;4.15;;
34573;SDS011;20809;49.594;8.734;2023-04-29T05:54:13;3.58;;;3.38;;
34573;SDS011;20809;49.594;8.734;2023-04-29T05:57:27;4.50;;;3.45;;
34573;SDS011;20809;49.594;8.734;2023-04-29T06:00:39;3.17;;;2.83;;
34573;SDS011;20809;49.594;8.734;2023-04-29T06:03:44;5.72;;;3.40;;
34573;SDS011;20809;49.594;8.734;2023-04-29T06:06:52;5.45;;;3.17;;
34573;SDS011;20809;49.594;8.734;2023-04-29T06:13:35;3.42;;;2.83;;
34573;SDS011;20809;49.594;8.734;2023-04-29T06:16:51;3.08;;;2.70;;
34573;SDS011;20809;49.594;8.734;2023-04-29T06:19:55;2.90;;;2.70;;
34573;SDS011;20809;49.594;8.734;2023-04-29T06:23:04;3.00;;;2.80;;
34573;SDS011;20809;49.594;8.734;2023-04-29T06:26:13;4.50;;;3.13;;
34573;SDS011;20809;49.594;8.734;2023-04-29T06:29:29;3.30;;;3.10;;
34573;SDS011;20809;49.594;8.734;2023-04-29T06:33:09;3.22;;;3.00;;
34573;SDS011;20809;49.594;8.734;2023-04-29T06:36:14;5.55;;;3.35;;
34573;SDS011;20809;49.594;8.734;2023-04-29T06:39:30;5.20;;;3.75;;
34573;SDS011;20809;49.594;8.734;2023-04-29T06:42:45;4.57;;;4.18;;
34573;SDS011;20809;49.594;8.734;2023-04-29T06:45:52;4.00;;;3.60;;
34573;SDS011;20809;49.594;8.734;2023-04-29T06:48:59;14.43;;;6.75;;
34573;SDS011;20809;49.594;8.734;2023-04-29T06:52:16;9.68;;;7.25;;
34573;SDS011;20809;49.594;8.734;2023-04-29T06:55:29;11.82;;;8.38;;
34573;SDS011;20809;49.594;8.734;2023-04-29T06:58:40;12.55;;;8.10;;
34573;SDS011;20809;49.594;8.734;2023-04-29T07:01:47;9.65;;;7.97;;
34573;SDS011;20809;49.594;8.734;2023-04-29T07:05:00;10.95;;;8.45;;
34573;SDS011;20809;49.594;8.734;2023-04-29T07:08:14;10.07;;;7.70;;
34573;SDS011;20809;49.594;8.734;2023-04-29T07:11:21;8.10;;;7.30;;
34573;SDS011;20809;49.594;8.734;2023-04-29T07:14:53;7.10;;;6.40;;
34573;SDS011;20809;49.594;8.734;2023-04-29T07:18:28;8.73;;;6.60;;
34573;SDS011;20809;49.594;8.734;2023-04-29T07:22:08;8.00;;;7.20;;
34573;SDS011;20809;49.594;8.734;2023-04-29T07:25:23;8.63;;;7.78;;
34573;SDS011;20809;49.594;8.734;2023-04-29T07:29:02;9.15;;;7.82;;
34573;SDS011;20809;49.594;8.734;2023-04-29T07:32:23;7.68;;;6.53;;
34573;SDS011;20809;49.594;8.734;2023-04-29T07:35:56;9.32;;;8.35;;
34573;SDS011;20809;49.594;8.734;2023-04-29T07:39:16;10.90;;;8.10;;
34573;SDS011;20809;49.594;8.734;2023-04-29T07:42:28;11.20;;;8.20;;
34573;SDS011;20809;49.594;8.734;2023-04-29T07:45:41;12.98;;;9.07;;
34573;SDS011;20809;49.594;8.734;2023-04-29T07:48:50;9.25;;;7.85;;
34573;SDS011;20809;49.594;8.734;2023-04-29T07:52:01;9.05;;;8.15;;
34573;SDS011;20809;49.594;8.734;2023-04-29T07:55:10;10.30;;;7.97;;
34573;SDS011;20809;49.594;8.734;2023-04-29T07:58:31;10.32;;;8.52;;
34573;SDS011;20809;49.594;8.734;2023-04-29T08:01:40;10.73;;;8.20;;
34573;SDS011;20809;49.594;8.734;2023-04-29T08:07:50;8.30;;;7.50;;
34573;SDS011;20809;49.594;8.734;2023-04-29T08:13:52;8.53;;;6.10;;
34573;SDS011;20809;49.594;8.734;2023-04-29T08:16:53;8.27;;;6.28;;
34573;SDS011;20809;49.594;8.734;2023-04-29T08:19:54;7.35;;;6.57;;
34573;SDS011;20809;49.594;8.734;2023-04-29T08:22:57;7.75;;;5.90;;
34573;SDS011;20809;49.594;8.734;2023-04-29T08:26:00;9.93;;;6.20;;
34573;SDS011;20809;49.594;8.734;2023-04-29T08:29:05;7.15;;;5.50;;
34573;SDS011;20809;49.594;8.734;2023-04-29T08:32:06;6.30;;;4.82;;
34573;SDS011;20809;49.594;8.734;2023-04-29T08:38:08;7.40;;;4.82;;
34573;SDS011;20809;49.594;8.734;2023-04-29T08:41:09;8.00;;;4.75;;
34573;SDS011;20809;49.594;8.734;2023-04-29T08:44:10;8.95;;;4.70;;
34573;SDS011;20809;49.594;8.734;2023-04-29T08:47:11;6.18;;;4.65;;
34573;SDS011;20809;49.594;8.734;2023-04-29T08:50:13;4.97;;;3.85;;
34573;SDS011;20809;49.594;8.734;2023-04-29T08:53:14;12.25;;;4.95;;
34573;SDS011;20809;49.594;8.734;2023-04-29T08:56:15;5.72;;;4.82;;
34573;SDS011;20809;49.594;8.734;2023-04-29T08:59:20;4.50;;;3.97;;
34573;SDS011;20809;49.594;8.734;2023-04-29T09:02:23;5.25;;;3.70;;
34573;SDS011;20809;49.594;8.734;2023-04-29T09:05:29;6.20;;;4.93;;
34573;SDS011;20809;49.594;8.734;2023-04-29T09:08:35;6.45;;;4.35;;
34573;SDS011;20809;49.594;8.734;2023-04-29T09:11:37;8.05;;;4.72;;
34573;SDS011;20809;49.594;8.734;2023-04-29T09:14:38;8.57;;;5.05;;
34573;SDS011;20809;49.594;8.734;2023-04-29T09:17:45;7.80;;;4.32;;
34573;SDS011;20809;49.594;8.734;2023-04-29T09:20:47;5.45;;;4.82;;
34573;SDS011;20809;49.594;8.734;2023-04-29T09:23:51;7.70;;;4.63;;
34573;SDS011;20809;49.594;8.734;2023-04-29T09:27:01;6.50;;;4.00;;
34573;SDS011;20809;49.594;8.734;2023-04-29T09:30:06;8.80;;;5.40;;
34573;SDS011;20809;49.594;8.734;2023-04-29T09:33:08;18.55;;;4.75;;
34573;SDS011;20809;49.594;8.734;2023-04-29T09:36:09;23.65;;;6.25;;
34573;SDS011;20809;49.594;8.734;2023-04-29T09:39:12;13.98;;;4.97;;
34573;SDS011;20809;49.594;8.734;2023-04-29T09:42:15;9.05;;;4.65;;
34573;SDS011;20809;49.594;8.734;2023-04-29T09:48:31;5.25;;;3.40;;
34573;SDS011;20809;49.594;8.734;2023-04-29T09:51:33;6.07;;;3.40;;
34573;SDS011;20809;49.594;8.734;2023-04-29T09:55:03;3.67;;;2.90;;
34573;SDS011;20809;49.594;8.734;2023-04-29T09:58:06;4.85;;;3.30;;
34573;SDS011;20809;49.594;8.734;2023-04-29T10:01:06;7.28;;;6.55;;
34573;SDS011;20809;49.594;8.734;2023-04-29T10:04:09;4.07;;;3.30;;
34573;SDS011;20809;49.594;8.734;2023-04-29T10:07:14;3.80;;;3.40;;
34573;SDS011;20809;49.594;8.734;2023-04-29T10:10:16;5.00;;;4.50;;
34573;SDS011;20809;49.594;8.734;2023-04-29T10:13:19;5.93;;;3.95;;
34573;SDS011;20809;49.594;8.734;2023-04-29T10:16:28;5.47;;;4.13;;
34573;SDS011;20809;49.594;8.734;2023-04-29T10:19:37;5.70;;;4.07;;
34573;SDS011;20809;49.594;8.734;2023-04-29T10:22:46;4.13;;;3.70;;
34573;SDS011;20809;49.594;8.734;2023-04-29T10:25:51;14.52;;;4.93;;
34573;SDS011;20809;49.594;8.734;2023-04-29T10:28:55;6.78;;;4.20;;
34573;SDS011;20809;49.594;8.734;2023-04-29T10:31:59;4.93;;;4.20;;
34573;SDS011;20809;49.594;8.734;2023-04-29T10:35:02;5.68;;;4.18;;
34573;SDS011;20809;49.594;8.734;2023-04-29T10:38:08;5.18;;;4.57;;
34573;SDS011;20809;49.594;8.734;2023-04-29T10:41:29;6.43;;;5.32;;
34573;SDS011;20809;49.594;8.734;2023-04-29T10:44:55;5.07;;;4.57;;
34573;SDS011;20809;49.594;8.734;2023-04-29T10:48:14;4.05;;;3.65;;
34573;SDS011;20809;49.594;8.734;2023-04-29T10:52:01;4.15;;;3.58;;
34573;SDS011;20809;49.594;8.734;2023-04-29T10:54:43;4.38;;;3.97;;
34573;SDS011;20809;49.594;8.734;2023-04-29T10:58:03;3.90;;;3.37;;
34573;SDS011;20809;49.594;8.734;2023-04-29T11:01:05;6.60;;;4.00;;
34573;SDS011;20809;49.594;8.734;2023-04-29T11:04:07;5.03;;;4.57;;
34573;SDS011;20809;49.594;8.734;2023-04-29T11:07:09;8.02;;;6.03;;
34573;SDS011;20809;49.594;8.734;2023-04-29T11:10:51;4.45;;;3.38;;
34573;SDS011;20809;49.594;8.734;2023-04-29T11:13:59;6.20;;;4.25;;
34573;SDS011;20809;49.594;8.734;2023-04-29T11:17:10;5.32;;;3.90;;
34573;SDS011;20809;49.594;8.734;2023-04-29T11:20:12;3.88;;;3.45;;
34573;SDS011;20809;49.594;8.734;2023-04-29T11:23:13;4.43;;;3.67;;
34573;SDS011;20809;49.594;8.734;2023-04-29T11:26:23;3.13;;;2.83;;
34573;SDS011;20809;49.594;8.734;2023-04-29T11:29:24;4.00;;;3.53;;
34573;SDS011;20809;49.594;8.734;2023-04-29T11:32:26;3.55;;;3.25;;
34573;SDS011;20809;49.594;8.734;2023-04-29T11:35:29;3.67;;;3.15;;
34573;SDS011;20809;49.594;8.734;2023-04-29T11:38:30;36.72;;;6.80;;
34573;SDS011;20809;49.594;8.734;2023-04-29T11:41:31;6.50;;;4.63;;
34573;SDS011;20809;49.594;8.734;2023-04-29T11:44:35;3.17;;;2.83;;
34573;SDS011;20809;49.594;8.734;2023-04-29T11:47:40;3.50;;;3.20;;
34573;SDS011;20809;49.594;8.734;2023-04-29T11:50:46;3.50;;;3.20;;
34573;SDS011;20809;49.594;8.734;2023-04-29T11:53:49;3.53;;;3.22;;
34573;SDS011;20809;49.594;8.734;2023-04-29T11:56:54;7.60;;;4.28;;
34573;SDS011;20809;49.594;8.734;2023-04-29T11:59:57;3.35;;;3.03;;
34573;SDS011;20809;49.594;8.734;2023-04-29T12:06:00;3.78;;;2.85;;
34573;SDS011;20809;49.594;8.734;2023-04-29T12:09:01;3.20;;;3.00;;
34573;SDS011;20809;49.594;8.734;2023-04-29T12:12:03;3.08;;;2.88;;
34573;SDS011;20809;49.594;8.734;2023-04-29T12:15:04;3.47;;;2.67;;
34573;SDS011;20809;49.594;8.734;2023-04-29T12:18:07;4.90;;;3.85;;
34573;SDS011;20809;49.594;8.734;2023-04-29T12:21:08;3.42;;;3.13;;
34573;SDS011;20809;49.594;8.734;2023-04-29T12:24:09;4.07;;;3.67;;
34573;SDS011;20809;49.594;8.734;2023-04-29T12:27:12;6.70;;;5.10;;
34573;SDS011;20809;49.594;8.734;2023-04-29T12:30:13;4.45;;;2.58;;
34573;SDS011;20809;49.594;8.734;2023-04-29T12:33:17;2.97;;;2.78;;
34573;SDS011;20809;49.594;8.734;2023-04-29T12:36:21;3.15;;;2.90;;
34573;SDS011;20809;49.594;8.734;2023-04-29T12:39:23;2.53;;;2.33;;
34573;SDS011;20809;49.594;8.734;2023-04-29T12:42:30;3.25;;;2.58;;
34573;SDS011;20809;49.594;8.734;2023-04-29T12:45:33;2.38;;;2.10;;
34573;SDS011;20809;49.594;8.734;2023-04-29T12:48:36;2.40;;;2.15;;
34573;SDS011;20809;49.594;8.734;2023-04-29T12:51:55;2.38;;;2.17;;
34573;SDS011;20809;49.594;8.734;2023-04-29T12:55:11;2.90;;;2.70;;
34573;SDS011;20809;49.594;8.734;2023-04-29T12:58:16;3.13;;;2.65;;
34573;SDS011;20809;49.594;8.734;2023-04-29T13:01:18;2.70;;;2.50;;
34573;SDS011;20809;49.594;8.734;2023-04-29T13:04:19;3.95;;;2.60;;
34573;SDS011;20809;49.594;8.734;2023-04-29T13:07:20;2.75;;;2.33;;
34573;SDS011;20809;49.594;8.734;2023-04-29T13:10:21;3.15;;;2.85;;
34573;SDS011;20809;49.594;8.734;2023-04-29T13:13:22;3.70;;;2.40;;
34573;SDS011;20809;49.594;8.734;2023-04-29T13:16:23;3.63;;;3.33;;
34573;SDS011;20809;49.594;8.734;2023-04-29T13:19:24;3.63;;;3.33;;
34573;SDS011;20809;49.594;8.734;2023-04-29T13:22:26;3.30;;;3.10;;
34573;SDS011;20809;49.594;8.734;2023-04-29T13:25:27;3.88;;;2.60;;
34573;SDS011;20809;49.594;8.734;2023-04-29T13:28:33;2.55;;;2.10;;
34573;SDS011;20809;49.594;8.734;2023-04-29T13:31:35;3.25;;;2.60;;
34573;SDS011;20809;49.594;8.734;2023-04-29T13:34:37;2.90;;;2.70;;
34573;SDS011;20809;49.594;8.734;2023-04-29T13:37:38;3.03;;;2.25;;
34573;SDS011;20809;49.594;8.734;2023-04-29T13:40:39;2.38;;;2.17;;
34573;SDS011;20809;49.594;8.734;2023-04-29T13:43:40;4.03;;;2.75;;
34573;SDS011;20809;49.594;8.734;2023-04-29T13:49:42;18.47;;;5.13;;
34573;SDS011;20809;49.594;8.734;2023-04-29T13:52:46;2.33;;;2.13;;
34573;SDS011;20809;49.594;8.734;2023-04-29T13:55:52;4.22;;;2.20;;
34573;SDS011;20809;49.594;8.734;2023-04-29T14:01:54;3.15;;;2.33;;
34573;SDS011;20809;49.594;8.734;2023-04-29T14:04:56;3.00;;;2.47;;
34573;SDS011;20809;49.594;8.734;2023-04-29T14:07:56;3.28;;;2.50;;
34573;SDS011;20809;49.594;8.734;2023-04-29T14:10:58;3.92;;;2.72;;
34573;SDS011;20809;49.594;8.734;2023-04-29T14:17:03;3.22;;;1.98;;
34573;SDS011;20809;49.594;8.734;2023-04-29T14:20:04;6.90;;;2.63;;
34573;SDS011;20809;49.594;8.734;2023-04-29T14:23:06;5.35;;;2.60;;
34573;SDS011;20809;49.594;8.734;2023-04-29T14:26:07;2.78;;;2.53;;
34573;SDS011;20809;49.594;8.734;2023-04-29T14:32:10;7.93;;;6.80;;
34573;SDS011;20809;49.594;8.734;2023-04-29T14:35:10;12.65;;;9.80;;
34573;SDS011;20809;49.594;8.734;2023-04-29T14:41:13;2.28;;;2.08;;
34573;SDS011;20809;49.594;8.734;2023-04-29T14:44:15;1.80;;;1.70;;
34573;SDS011;20809;49.594;8.734;2023-04-29T14:47:16;2.40;;;2.20;;
34573;SDS011;20809;49.594;8.734;2023-04-29T14:50:19;3.38;;;3.08;;
34573;SDS011;20809;49.594;8.734;2023-04-29T14:53:24;4.03;;;2.42;;
34573;SDS011;20809;49.594;8.734;2023-04-29T14:56:26;2.55;;;2.35;;
34573;SDS011;20809;49.594;8.734;2023-04-29T14:59:30;2.80;;;2.60;;
34573;SDS011;20809;49.594;8.734;2023-04-29T15:02:33;2.70;;;2.50;;
34573;SDS011;20809;49.594;8.734;2023-04-29T15:05:37;2.90;;;2.65;;
34573;SDS011;20809;49.594;8.734;2023-04-29T15:08:41;2.72;;;1.98;;
34573;SDS011;20809;49.594;8.734;2023-04-29T15:11:48;2.03;;;1.88;;
34573;SDS011;20809;49.594;8.734;2023-04-29T15:15:11;2.80;;;2.60;;
34573;SDS011;20809;49.594;8.734;2023-04-29T15:18:26;4.20;;;2.90;;
34573;SDS011;20809;49.594;8.734;2023-04-29T15:21:30;3.40;;;2.88;;
34573;SDS011;20809;49.594;8.734;2023-04-29T15:24:33;3.42;;;3.13;;
34573;SDS011;20809;49.594;8.734;2023-04-29T15:27:38;2.83;;;2.53;;
34573;SDS011;20809;49.594;8.734;2023-04-29T15:30:54;3.47;;;2.92;;
34573;SDS011;20809;49.594;8.734;2023-04-29T15:34:11;2.92;;;2.55;;
34573;SDS011;20809;49.594;8.734;2023-04-29T15:37:16;3.13;;;2.83;;
34573;SDS011;20809;49.594;8.734;2023-04-29T15:40:21;4.00;;;2.53;;
34573;SDS011;20809;49.594;8.734;2023-04-29T15:43:29;6.60;;;2.72;;
34573;SDS011;20809;49.594;8.734;2023-04-29T15:46:43;2.85;;;2.55;;
34573;SDS011;20809;49.594;8.734;2023-04-29T15:50:12;4.95;;;3.10;;
34573;SDS011;20809;49.594;8.734;2023-04-29T15:53:38;3.80;;;3.15;;
34573;SDS011;20809;49.594;8.734;2023-04-29T15:57:16;5.05;;;2.95;;
34573;SDS011;20809;49.594;8.734;2023-04-29T16:00:22;4.20;;;2.55;;
34573;SDS011;20809;49.594;8.734;2023-04-29T16:03:35;3.13;;;2.40;;
34573;SDS011;20809;49.594;8.734;2023-04-29T16:06:50;5.03;;;2.42;;
34573;SDS011;20809;49.594;8.734;2023-04-29T16:10:17;2.50;;;2.30;;
34573;SDS011;20809;49.594;8.734;2023-04-29T16:13:35;3.60;;;2.30;;
34573;SDS011;20809;49.594;8.734;2023-04-29T16:16:56;3.70;;;2.38;;
34573;SDS011;20809;49.594;8.734;2023-04-29T16:20:17;4.70;;;3.00;;
34573;SDS011;20809;49.594;8.734;2023-04-29T16:23:25;4.10;;;3.13;;
34573;SDS011;20809;49.594;8.734;2023-04-29T16:26:31;3.80;;;2.95;;
34573;SDS011;20809;49.594;8.734;2023-04-29T16:29:44;3.15;;;2.85;;
34573;SDS011;20809;49.594;8.734;2023-04-29T16:33:06;2.90;;;2.63;;
34573;SDS011;20809;49.594;8.734;2023-04-29T16:36:52;3.45;;;2.80;;
34573;SDS011;20809;49.594;8.734;2023-04-29T16:40:15;12.98;;;2.67;;
34573;SDS011;20809;49.594;8.734;2023-04-29T16:43:26;2.47;;;2.22;;
34573;SDS011;20809;49.594;8.734;2023-04-29T16:46:37;4.70;;;3.25;;
34573;SDS011;20809;49.594;8.734;2023-04-29T16:49:53;3.58;;;2.58;;
34573;SDS011;20809;49.594;8.734;2023-04-29T16:53:13;3.25;;;2.90;;
34573;SDS011;20809;49.594;8.734;2023-04-29T16:56:21;4.72;;;3.25;;
34573;SDS011;20809;49.594;8.734;2023-04-29T16:59:29;4.22;;;3.20;;
34573;SDS011;20809;49.594;8.734;2023-04-29T17:02:36;4.47;;;2.67;;
34573;SDS011;20809;49.594;8.734;2023-04-29T17:06:01;2.53;;;2.30;;
34573;SDS011;20809;49.594;8.734;2023-04-29T17:09:17;4.97;;;3.40;;
34573;SDS011;20809;49.594;8.734;2023-04-29T17:12:30;2.75;;;2.50;;
34573;SDS011;20809;49.594;8.734;2023-04-29T17:16:16;3.42;;;2.67;;
34573;SDS011;20809;49.594;8.734;2023-04-29T17:19:30;2.28;;;1.90;;
34573;SDS011;20809;49.594;8.734;2023-04-29T17:22:41;2.72;;;2.30;;
34573;SDS011;20809;49.594;8.734;2023-04-29T17:25:55;3.65;;;1.90;;
34573;SDS011;20809;49.594;8.734;2023-04-29T17:29:16;2.20;;;2.00;;
34573;SDS011;20809;49.594;8.734;2023-04-29T17:32:22;2.20;;;2.00;;
34573;SDS011;20809;49.594;8.734;2023-04-29T17:35:33;2.40;;;2.20;;
34573;SDS011;20809;49.594;8.734;2023-04-29T17:38:49;1.40;;;1.30;;
34573;SDS011;20809;49.594;8.734;2023-04-29T17:42:15;2.13;;;1.35;;
34573;SDS011;20809;49.594;8.734;2023-04-29T17:45:22;2.80;;;1.40;;
34573;SDS011;20809;49.594;8.734;2023-04-29T17:48:29;2.00;;;1.55;;
34573;SDS011;20809;49.594;8.734;2023-04-29T17:55:19;1.60;;;1.42;;
34573;SDS011;20809;49.594;8.734;2023-04-29T17:58:27;1.60;;;1.30;;
34573;SDS011;20809;49.594;8.734;2023-04-29T18:01:38;5.07;;;1.88;;
34573;SDS011;20809;49.594;8.734;2023-04-29T18:05:14;1.52;;;1.10;;
34573;SDS011;20809;49.594;8.734;2023-04-29T18:08:28;1.05;;;0.95;;
34573;SDS011;20809;49.594;8.734;2023-04-29T18:11:52;1.83;;;1.60;;
34573;SDS011;20809;49.594;8.734;2023-04-29T18:15:11;1.45;;;1.35;;
34573;SDS011;20809;49.594;8.734;2023-04-29T18:18:29;1.65;;;0.90;;
34573;SDS011;20809;49.594;8.734;2023-04-29T18:21:42;4.03;;;0.80;;
34573;SDS011;20809;49.594;8.734;2023-04-29T18:24:59;1.83;;;0.90;;
34573;SDS011;20809;49.594;8.734;2023-04-29T18:28:11;1.23;;;1.00;;
34573;SDS011;20809;49.594;8.734;2023-04-29T18:31:18;1.02;;;1.00;;
34573;SDS011;20809;49.594;8.734;2023-04-29T18:34:31;3.50;;;1.23;;
34573;SDS011;20809;49.594;8.734;2023-04-29T18:37:41;1.20;;;1.10;;
34573;SDS011;20809;49.594;8.734;2023-04-29T18:40:57;2.20;;;2.08;;
34573;SDS011;20809;49.594;8.734;2023-04-29T18:44:10;3.05;;;1.77;;
34573;SDS011;20809;49.594;8.734;2023-04-29T18:47:14;1.73;;;1.63;;
34573;SDS011;20809;49.594;8.734;2023-04-29T18:50:24;2.38;;;2.03;;
34573;SDS011;20809;49.594;8.734;2023-04-29T18:53:34;2.72;;;2.03;;
34573;SDS011;20809;49.594;8.734;2023-04-29T18:56:47;2.50;;;1.90;;
34573;SDS011;20809;49.594;8.734;2023-04-29T19:00:00;2.58;;;2.35;;
34573;SDS011;20809;49.594;8.734;2023-04-29T19:03:08;2.72;;;2.10;;
34573;SDS011;20809;49.594;8.734;2023-04-29T19:06:12;2.30;;;2.10;;
34573;SDS011;20809;49.594;8.734;2023-04-29T19:09:19;2.50;;;2.28;;
34573;SDS011;20809;49.594;8.734;2023-04-29T19:12:26;2.65;;;2.45;;
34573;SDS011;20809;49.594;8.734;2023-04-29T19:15:33;3.83;;;3.03;;
34573;SDS011;20809;49.594;8.734;2023-04-29T19:18:40;2.55;;;2.35;;
34573;SDS011;20809;49.594;8.734;2023-04-29T19:22:01;4.00;;;3.17;;
34573;SDS011;20809;49.594;8.734;2023-04-29T19:25:09;2.97;;;2.45;;
34573;SDS011;20809;49.594;8.734;2023-04-29T19:28:17;3.40;;;3.10;;
34573;SDS011;20809;49.594;8.734;2023-04-29T19:31:33;4.65;;;3.33;;
34573;SDS011;20809;49.594;8.734;2023-04-29T19:35:00;3.60;;;3.30;;
34573;SDS011;20809;49.594;8.734;2023-04-29T19:38:06;5.90;;;4.03;;
34573;SDS011;20809;49.594;8.734;2023-04-29T19:41:12;6.57;;;4.63;;
34573;SDS011;20809;49.594;8.734;2023-04-29T19:44:22;5.75;;;5.25;;
34573;SDS011;20809;49.594;8.734;2023-04-29T19:47:35;5.13;;;4.63;;
34573;SDS011;20809;49.594;8.734;2023-04-29T19:50:40;6.32;;;4.50;;
34573;SDS011;20809;49.594;8.734;2023-04-29T19:53:48;5.97;;;5.00;;